Time;durP1;ratioP1;P1;durP2;ratioP2;P2;SDS_P1;SDS_P2;PMS_P1;PMS_P2;Temp;Humidity;BMP_temperature;BMP_pressure;BME280_temperature;BME280_humidity;BME280_pressure;Samples;Min_cycle;Max_cycle;Signal;HPM_P1;HPM_P2
2022/05/18 00:00:30;;;;;;;;;2.00;2.00;;;;;;;;5124579;27;61866;-78
2022/05/18 00:02:58;;;;;;;;;3.00;1.33;;;;;;;;5124913;27;61896;-75
2022/05/18 00:05:23;;;;;;;;;1.00;1.00;;;;;;;;5124978;27;61930;-75
2022/05/18 00:07:50;;;;;;;;;2.00;2.00;;;;;;;;5124900;27;61751;-78
2022/05/18 00:10:15;;;;;;;;;2.00;2.00;;;;;;;;5122475;27;63359;-76
2022/05/18 00:12:45;;;;;;;;;1.67;1.67;;;;;;;;5122887;27;61765;-76
2022/05/18 00:15:11;;;;;;;;;3.00;2.33;;;;;;;;5124247;27;61957;-76
2022/05/18 00:17:36;;;;;;;;;5.67;3.00;;;;;;;;5123628;27;62550;-75
2022/05/18 00:20:01;;;;;;;;;2.00;2.00;;;;;;;;5123964;27;61768;-75
2022/05/18 00:22:26;;;;;;;;;4.50;3.25;;;;;;;;5122099;27;62079;-76
2022/05/18 00:24:52;;;;;;;;;1.75;1.75;;;;;;;;5124654;27;61950;-76
2022/05/18 00:27:17;;;;;;;;;3.33;2.00;;;;;;;;5123119;27;61890;-75
2022/05/18 00:29:42;;;;;;;;;3.33;2.67;;;;;;;;5123772;27;61995;-76
2022/05/18 00:32:08;;;;;;;;;3.33;3.00;;;;;;;;5124155;27;61905;-76
2022/05/18 00:34:33;;;;;;;;;2.00;2.00;;;;;;;;5123078;27;61962;-75
2022/05/18 00:36:58;;;;;;;;;4.75;3.00;;;;;;;;5124773;27;61748;-76
2022/05/18 00:39:23;;;;;;;;;3.00;3.00;;;;;;;;5123653;27;61887;-75
2022/05/18 00:41:49;;;;;;;;;5.00;3.00;;;;;;;;5124588;27;61959;-75
2022/05/18 00:44:14;;;;;;;;;1.67;1.33;;;;;;;;5123459;27;61827;-76
2022/05/18 00:46:39;;;;;;;;;4.25;2.25;;;;;;;;5124884;27;61792;-75
2022/05/18 00:49:16;;;;;;;;;4.00;3.00;;;;;;;;5121938;27;63718;-76
2022/05/18 00:51:49;;;;;;;;;3.50;3.00;;;;;;;;5124326;27;61819;-75
2022/05/18 00:54:18;;;;;;;;;5.00;3.00;;;;;;;;5123739;27;61757;-76
2022/05/18 00:56:47;;;;;;;;;1.00;1.00;;;;;;;;5122908;27;62140;-75
2022/05/18 00:59:15;;;;;;;;;2.00;2.00;;;;;;;;5121541;27;63676;-75
2022/05/18 01:01:41;;;;;;;;;4.00;4.00;;;;;;;;5124090;27;61772;-76
2022/05/18 01:04:07;;;;;;;;;3.75;2.75;;;;;;;;5123976;27;61847;-75
2022/05/18 01:06:37;;;;;;;;;3.50;2.75;;;;;;;;5124398;27;62286;-76
2022/05/18 01:09:04;;;;;;;;;4.00;4.00;;;;;;;;5122895;27;61854;-76
2022/05/18 01:11:50;;;;;;;;;2.00;2.00;;;;;;;;5123575;27;62016;-75
2022/05/18 01:14:36;;;;;;;;;8.00;3.00;;;;;;;;5123265;27;61974;-75
2022/05/18 01:17:01;;;;;;;;;3.50;1.00;;;;;;;;5123448;27;61923;-76
2022/05/18 01:19:44;;;;;;;;;4.75;4.00;;;;;;;;5122990;27;62201;-75
2022/05/18 01:22:12;;;;;;;;;4.75;3.00;;;;;;;;5123761;27;61915;-75
2022/05/18 01:24:46;;;;;;;;;4.75;3.75;;;;;;;;5123856;27;61865;-75
2022/05/18 01:27:11;;;;;;;;;1.00;1.00;;;;;;;;5122157;27;62012;-75
2022/05/18 01:29:37;;;;;;;;;4.25;3.25;;;;;;;;5121618;27;63467;-75
2022/05/18 01:32:04;;;;;;;;;4.25;2.25;;;;;;;;5123653;27;61896;-75
2022/05/18 01:34:31;;;;;;;;;2.75;2.75;;;;;;;;5123047;27;61754;-76
2022/05/18 01:36:57;;;;;;;;;2.50;2.50;;;;;;;;5124122;27;61996;-75
2022/05/18 01:39:32;;;;;;;;;3.75;2.25;;;;;;;;5122732;27;62680;-76
2022/05/18 01:42:06;;;;;;;;;4.75;2.75;;;;;;;;5123422;27;62064;-75
2022/05/18 01:44:33;;;;;;;;;4.75;4.00;;;;;;;;5121515;27;61807;-76
2022/05/18 01:46:59;;;;;;;;;2.00;2.00;;;;;;;;5123819;27;61850;-75
2022/05/18 01:49:24;;;;;;;;;3.00;3.00;;;;;;;;5122912;27;62834;-75
2022/05/18 01:51:51;;;;;;;;;3.00;3.00;;;;;;;;5123398;27;61752;-76
2022/05/18 01:54:18;;;;;;;;;4.00;4.00;;;;;;;;5123542;27;62184;-76
2022/05/18 01:56:44;;;;;;;;;3.00;3.00;;;;;;;;5123204;27;61799;-75
2022/05/18 01:59:09;;;;;;;;;6.50;2.75;;;;;;;;5122510;27;62655;-75
2022/05/18 02:01:44;;;;;;;;;3.00;3.00;;;;;;;;5121767;27;61841;-75
2022/05/18 02:04:09;;;;;;;;;4.75;3.00;;;;;;;;5121781;27;61825;-76
2022/05/18 02:06:35;;;;;;;;;2.25;2.25;;;;;;;;5123203;27;61914;-75
2022/05/18 02:09:01;;;;;;;;;3.00;3.00;;;;;;;;5122288;27;61947;-76
2022/05/18 02:11:26;;;;;;;;;6.50;3.00;;;;;;;;5121254;27;61838;-76
2022/05/18 02:13:51;;;;;;;;;5.00;4.50;;;;;;;;5123114;27;61822;-77
2022/05/18 02:16:17;;;;;;;;;2.50;1.50;;;;;;;;5121783;27;61889;-77
2022/05/18 02:18:43;;;;;;;;;3.50;2.75;;;;;;;;5122522;27;61811;-77
2022/05/18 02:21:09;;;;;;;;;0.00;0.00;;;;;;;;5123264;27;62011;-77
2022/05/18 02:23:35;;;;;;;;;2.00;2.00;;;;;;;;5123103;27;61911;-77
2022/05/18 02:26:07;;;;;;;;;3.00;2.00;;;;;;;;5123065;27;61752;-77
2022/05/18 02:28:32;;;;;;;;;2.50;1.75;;;;;;;;5122064;27;62148;-77
2022/05/18 02:30:58;;;;;;;;;2.25;2.25;;;;;;;;5123243;27;61936;-76
2022/05/18 02:33:23;;;;;;;;;2.00;2.00;;;;;;;;5123234;27;61932;-77
2022/05/18 02:35:48;;;;;;;;;3.00;2.00;;;;;;;;5123103;27;61962;-77
2022/05/18 02:38:14;;;;;;;;;2.75;2.00;;;;;;;;5122332;27;63152;-77
2022/05/18 02:40:39;;;;;;;;;1.75;1.75;;;;;;;;5121037;27;61762;-77
2022/05/18 02:43:04;;;;;;;;;4.50;2.75;;;;;;;;5122563;27;61919;-77
2022/05/18 02:45:30;;;;;;;;;3.00;2.25;;;;;;;;5122927;27;61849;-77
2022/05/18 02:47:55;;;;;;;;;2.00;1.25;;;;;;;;5125879;27;61804;-77
2022/05/18 02:50:20;;;;;;;;;3.00;2.00;;;;;;;;5126545;27;61778;-77
2022/05/18 02:52:45;;;;;;;;;2.00;2.00;;;;;;;;5126492;27;62041;-77
2022/05/18 02:57:56;;;;;;;;;2.25;2.25;;;;;;;;5124319;27;63710;-77
2022/05/18 03:00:21;;;;;;;;;3.00;3.00;;;;;;;;5126014;27;61909;-77
2022/05/18 03:02:47;;;;;;;;;3.25;3.00;;;;;;;;5126164;27;61705;-77
2022/05/18 03:05:12;;;;;;;;;2.50;2.00;;;;;;;;5124805;27;61653;-76
2022/05/18 03:07:38;;;;;;;;;1.00;1.00;;;;;;;;5125226;27;62372;-77
2022/05/18 03:10:04;;;;;;;;;1.75;1.75;;;;;;;;5124346;27;62020;-77
2022/05/18 03:12:29;;;;;;;;;3.25;2.00;;;;;;;;5124410;27;61990;-77
2022/05/18 03:14:54;;;;;;;;;2.75;1.75;;;;;;;;5126409;27;61732;-77
2022/05/18 03:17:20;;;;;;;;;0.50;0.50;;;;;;;;5130351;27;61863;-76
2022/05/18 03:19:46;;;;;;;;;1.00;1.00;;;;;;;;5127213;27;61983;-77
2022/05/18 03:24:55;;;;;;;;;3.00;1.00;;;;;;;;5125501;27;62006;-76
2022/05/18 03:27:21;;;;;;;;;1.00;1.00;;;;;;;;5125017;27;62672;-77
2022/05/18 03:29:46;;;;;;;;;1.75;1.00;;;;;;;;5125500;27;61882;-77
2022/05/18 03:32:12;;;;;;;;;0.50;0.50;;;;;;;;5125885;27;61807;-77
2022/05/18 03:34:37;;;;;;;;;1.00;1.00;;;;;;;;5125830;27;62010;-77
2022/05/18 03:37:02;;;;;;;;;2.00;1.00;;;;;;;;5124895;27;62033;-77
2022/05/18 03:39:28;;;;;;;;;1.00;1.00;;;;;;;;5125464;27;61895;-76
2022/05/18 03:41:53;;;;;;;;;3.50;2.50;;;;;;;;5125546;27;61738;-77
2022/05/18 03:44:20;;;;;;;;;2.00;1.00;;;;;;;;5125631;27;61664;-77
2022/05/18 03:46:45;;;;;;;;;1.00;1.00;;;;;;;;5124904;27;61889;-76
2022/05/18 03:49:11;;;;;;;;;1.00;1.00;;;;;;;;5125295;27;61938;-76
2022/05/18 03:51:37;;;;;;;;;2.75;1.00;;;;;;;;5125678;27;61944;-77
2022/05/18 03:54:02;;;;;;;;;1.00;1.00;;;;;;;;5123760;27;62143;-77
2022/05/18 03:56:28;;;;;;;;;1.00;1.00;;;;;;;;5117307;27;62614;-77
2022/05/18 03:58:53;;;;;;;;;2.75;2.00;;;;;;;;5124907;27;61937;-76
2022/05/18 04:01:18;;;;;;;;;1.00;1.00;;;;;;;;5125297;27;61906;-77
2022/05/18 04:03:44;;;;;;;;;1.00;0.00;;;;;;;;5123933;27;61988;-76
2022/05/18 04:06:10;;;;;;;;;0.00;0.00;;;;;;;;5124673;27;61937;-77
2022/05/18 04:08:35;;;;;;;;;0.75;0.75;;;;;;;;5124907;27;62149;-76
2022/05/18 04:11:01;;;;;;;;;3.00;0.00;;;;;;;;5124979;27;61894;-77
2022/05/18 04:13:26;;;;;;;;;2.00;1.00;;;;;;;;5124915;27;61869;-76
2022/05/18 04:15:53;;;;;;;;;0.25;0.25;;;;;;;;5124257;27;62889;-76
2022/05/18 04:18:18;;;;;;;;;1.00;1.00;;;;;;;;5123571;27;62020;-77
2022/05/18 04:20:44;;;;;;;;;0.50;0.50;;;;;;;;5124995;27;62045;-76
2022/05/18 04:23:11;;;;;;;;;0.25;0.25;;;;;;;;5124866;27;61874;-76
2022/05/18 04:25:36;;;;;;;;;0.75;0.00;;;;;;;;5124248;27;61983;-76
2022/05/18 04:28:02;;;;;;;;;1.00;1.00;;;;;;;;5124508;27;61648;-76
2022/05/18 04:30:28;;;;;;;;;0.00;0.00;;;;;;;;5123639;27;61853;-76
2022/05/18 04:32:53;;;;;;;;;0.00;0.00;;;;;;;;5125014;27;61897;-76
2022/05/18 04:35:20;;;;;;;;;0.25;0.00;;;;;;;;5124165;27;61880;-76
2022/05/18 04:37:45;;;;;;;;;2.00;0.50;;;;;;;;5124318;27;61827;-77
2022/05/18 04:40:11;;;;;;;;;0.00;0.00;;;;;;;;5123165;27;61950;-76
2022/05/18 04:42:37;;;;;;;;;1.50;0.50;;;;;;;;5124424;27;61925;-76
2022/05/18 04:45:03;;;;;;;;;0.50;0.50;;;;;;;;5122420;27;64021;-77
2022/05/18 04:47:29;;;;;;;;;0.50;0.00;;;;;;;;5124805;27;61803;-76
2022/05/18 04:49:57;;;;;;;;;0.00;0.00;;;;;;;;5124271;27;61829;-76
2022/05/18 04:52:27;;;;;;;;;0.25;0.25;;;;;;;;5124383;27;61720;-76
2022/05/18 04:54:52;;;;;;;;;0.75;0.75;;;;;;;;5121781;27;63462;-76
2022/05/18 04:57:18;;;;;;;;;1.00;1.00;;;;;;;;5117695;27;61926;-76
2022/05/18 04:59:43;;;;;;;;;0.00;0.00;;;;;;;;5124210;27;62145;-76
2022/05/18 05:02:08;;;;;;;;;2.00;1.00;;;;;;;;5124559;27;61860;-77
2022/05/18 05:04:34;;;;;;;;;0.00;0.00;;;;;;;;5123773;27;62834;-76
2022/05/18 05:06:59;;;;;;;;;0.00;0.00;;;;;;;;5123689;27;61696;-77
2022/05/18 05:09:25;;;;;;;;;1.00;1.00;;;;;;;;5123382;27;62077;-76
2022/05/18 05:11:51;;;;;;;;;1.50;1.00;;;;;;;;5124509;27;61844;-76
2022/05/18 05:14:17;;;;;;;;;1.00;0.00;;;;;;;;5123443;27;62088;-76
2022/05/18 05:16:42;;;;;;;;;0.00;0.00;;;;;;;;5124238;27;61713;-76
2022/05/18 05:19:07;;;;;;;;;0.75;0.75;;;;;;;;5124139;27;61618;-76
2022/05/18 05:21:33;;;;;;;;;1.25;1.25;;;;;;;;5122952;27;61801;-76
2022/05/18 05:23:58;;;;;;;;;2.00;0.75;;;;;;;;5123675;27;62542;-76
2022/05/18 05:26:24;;;;;;;;;3.75;0.50;;;;;;;;5123626;27;61846;-76
2022/05/18 05:28:49;;;;;;;;;0.00;0.00;;;;;;;;5123997;27;61871;-77
2022/05/18 05:31:14;;;;;;;;;0.00;0.00;;;;;;;;5122654;27;61845;-75
2022/05/18 05:33:41;;;;;;;;;0.00;0.00;;;;;;;;5123306;27;61753;-75
2022/05/18 05:36:07;;;;;;;;;0.00;0.00;;;;;;;;5123734;27;62155;-75
2022/05/18 05:38:33;;;;;;;;;0.00;0.00;;;;;;;;5123377;27;61851;-75
2022/05/18 05:41:00;;;;;;;;;0.75;0.75;;;;;;;;5123991;27;61918;-75
2022/05/18 05:43:26;;;;;;;;;1.25;0.00;;;;;;;;5121669;27;64641;-75
2022/05/18 05:45:58;;;;;;;;;0.00;0.00;;;;;;;;5122968;27;61683;-75
2022/05/18 05:48:24;;;;;;;;;1.75;0.75;;;;;;;;5122674;27;61700;-75
2022/05/18 05:50:49;;;;;;;;;0.75;0.00;;;;;;;;5123680;27;61913;-75
2022/05/18 05:53:15;;;;;;;;;0.25;0.00;;;;;;;;5122037;27;61840;-80
2022/05/18 05:55:40;;;;;;;;;0.00;0.00;;;;;;;;5122369;27;61795;-76
2022/05/18 05:58:05;;;;;;;;;1.00;1.00;;;;;;;;5122476;27;61775;-81
2022/05/18 06:00:31;;;;;;;;;1.00;0.00;;;;;;;;5122930;27;62057;-81
2022/05/18 06:02:56;;;;;;;;;1.00;1.00;;;;;;;;5122156;27;62823;-81
2022/05/18 06:05:21;;;;;;;;;1.00;1.00;;;;;;;;5121415;27;62032;-82
2022/05/18 06:07:46;;;;;;;;;0.75;0.75;;;;;;;;5121436;27;62017;-81
2022/05/18 06:10:12;;;;;;;;;0.00;0.00;;;;;;;;5122744;27;61759;-81
2022/05/18 06:12:38;;;;;;;;;0.00;0.00;;;;;;;;5121909;27;62733;-81
2022/05/18 06:15:04;;;;;;;;;0.00;0.00;;;;;;;;5120299;27;62048;-89
2022/05/18 06:17:29;;;;;;;;;2.75;0.25;;;;;;;;5120342;27;62092;-86
2022/05/18 06:19:54;;;;;;;;;0.00;0.00;;;;;;;;5123499;27;61995;-84
2022/05/18 06:22:20;;;;;;;;;0.00;0.00;;;;;;;;5125405;27;62790;-81
2022/05/18 06:24:49;;;;;;;;;2.00;0.25;;;;;;;;5126096;27;62179;-81
2022/05/18 06:27:14;;;;;;;;;1.25;1.00;;;;;;;;5125055;27;62414;-81
2022/05/18 06:29:40;;;;;;;;;2.75;0.00;;;;;;;;5126545;27;61715;-81
2022/05/18 06:32:05;;;;;;;;;0.00;0.00;;;;;;;;5124538;27;63661;-81
2022/05/18 06:34:31;;;;;;;;;0.00;0.00;;;;;;;;5124571;27;61868;-81
2022/05/18 06:36:56;;;;;;;;;1.00;0.00;;;;;;;;5124488;27;62008;-82
2022/05/18 06:39:21;;;;;;;;;0.00;0.00;;;;;;;;5124601;27;61832;-82
2022/05/18 06:41:47;;;;;;;;;0.00;0.00;;;;;;;;5124357;27;64086;-81
2022/05/18 06:44:13;;;;;;;;;0.00;0.00;;;;;;;;5126263;27;62104;-81
2022/05/18 06:46:39;;;;;;;;;0.00;0.00;;;;;;;;5124809;27;61783;-81
2022/05/18 06:49:05;;;;;;;;;0.00;0.00;;;;;;;;5125758;27;61821;-81
2022/05/18 06:51:35;;;;;;;;;0.00;0.00;;;;;;;;5125486;27;62051;-83
2022/05/18 06:54:00;;;;;;;;;0.33;0.00;;;;;;;;5124407;27;62078;-83
2022/05/18 06:56:30;;;;;;;;;0.33;0.00;;;;;;;;5119154;27;62015;-81
2022/05/18 06:58:55;;;;;;;;;0.00;0.00;;;;;;;;5111635;27;63055;-82
2022/05/18 07:01:21;;;;;;;;;0.00;0.00;;;;;;;;5123027;27;64744;-82
2022/05/18 07:03:47;;;;;;;;;0.33;0.00;;;;;;;;5124637;27;61999;-82
2022/05/18 07:06:13;;;;;;;;;0.00;0.00;;;;;;;;5126018;27;61932;-81
2022/05/18 07:08:39;;;;;;;;;0.33;0.00;;;;;;;;5125866;27;61837;-81
2022/05/18 07:11:04;;;;;;;;;0.00;0.00;;;;;;;;5125249;27;62127;-81
2022/05/18 07:13:34;;;;;;;;;0.00;0.00;;;;;;;;5124951;27;61928;-81
2022/05/18 07:15:59;;;;;;;;;0.33;0.33;;;;;;;;5125630;27;61854;-81
2022/05/18 07:18:31;;;;;;;;;0.00;0.00;;;;;;;;5126225;27;61945;-82
2022/05/18 07:20:57;;;;;;;;;1.00;0.00;;;;;;;;5124470;27;62821;-81
2022/05/18 07:23:23;;;;;;;;;0.00;0.00;;;;;;;;5125092;27;61852;-82
2022/05/18 07:25:50;;;;;;;;;0.00;0.00;;;;;;;;5124352;27;61841;-74
2022/05/18 07:28:15;;;;;;;;;0.00;0.00;;;;;;;;5125318;27;62028;-74
2022/05/18 07:30:40;;;;;;;;;0.00;0.00;;;;;;;;5123445;27;62296;-74
2022/05/18 07:33:06;;;;;;;;;0.00;0.00;;;;;;;;5123303;27;62004;-74
2022/05/18 07:35:32;;;;;;;;;0.00;0.00;;;;;;;;5125255;27;62073;-74
2022/05/18 07:37:57;;;;;;;;;1.00;1.00;;;;;;;;5125196;27;62071;-74
2022/05/18 07:40:23;;;;;;;;;2.00;0.00;;;;;;;;5122861;27;63555;-74
2022/05/18 07:42:48;;;;;;;;;1.50;0.00;;;;;;;;5125257;27;62386;-76
2022/05/18 07:45:13;;;;;;;;;0.00;0.00;;;;;;;;5125241;27;62195;-74
2022/05/18 07:47:39;;;;;;;;;0.50;0.50;;;;;;;;5125390;27;61830;-75
2022/05/18 07:50:04;;;;;;;;;0.00;0.00;;;;;;;;5124620;27;62042;-87
2022/05/18 07:52:30;;;;;;;;;0.00;0.00;;;;;;;;5125081;27;61746;-86
2022/05/18 07:54:55;;;;;;;;;0.00;0.00;;;;;;;;5124879;27;62186;-85
2022/05/18 07:57:21;;;;;;;;;0.00;0.00;;;;;;;;5122919;27;62177;-74
2022/05/18 07:59:46;;;;;;;;;0.00;0.00;;;;;;;;5123420;27;62798;-74
2022/05/18 08:02:11;;;;;;;;;0.00;0.00;;;;;;;;5124962;27;61681;-74
2022/05/18 08:04:37;;;;;;;;;0.00;0.00;;;;;;;;5124875;27;61848;-74
2022/05/18 08:07:02;;;;;;;;;0.50;0.50;;;;;;;;5124805;27;61963;-75
2022/05/18 08:09:27;;;;;;;;;1.00;0.00;;;;;;;;5124466;27;62162;-74
2022/05/18 08:17:21;;;;;;;;;2.25;1.25;;;;;;;;5104211;27;62380;-74
2022/05/18 08:19:46;;;;;;;;;1.67;1.00;;;;;;;;5121602;27;63611;-74
2022/05/18 08:22:12;;;;;;;;;1.00;1.00;;;;;;;;5123073;27;61969;-74
2022/05/18 08:24:37;;;;;;;;;1.00;1.00;;;;;;;;5124662;27;62165;-74
2022/05/18 08:27:10;;;;;;;;;0.00;0.00;;;;;;;;5124778;27;61992;-77
2022/05/18 08:29:36;;;;;;;;;1.00;0.00;;;;;;;;5123714;27;62879;-74
2022/05/18 08:32:02;;;;;;;;;0.00;0.00;;;;;;;;5124634;27;61791;-74
2022/05/18 08:34:27;;;;;;;;;1.00;1.00;;;;;;;;5124336;27;61957;-74
2022/05/18 08:36:52;;;;;;;;;0.00;0.00;;;;;;;;5124287;27;61687;-74
2022/05/18 08:39:18;;;;;;;;;1.00;1.00;;;;;;;;5122366;27;63795;-75
2022/05/18 08:41:45;;;;;;;;;0.67;0.67;;;;;;;;5123194;27;61919;-74
2022/05/18 08:44:17;;;;;;;;;0.00;0.00;;;;;;;;5123075;27;61798;-74
2022/05/18 08:46:44;;;;;;;;;0.67;0.67;;;;;;;;5123943;27;61930;-75
2022/05/18 08:49:22;;;;;;;;;1.00;0.67;;;;;;;;5122535;27;62814;-74
2022/05/18 08:51:56;;;;;;;;;1.67;0.33;;;;;;;;5121447;27;61885;-74
2022/05/18 08:54:40;;;;;;;;;0.00;0.00;;;;;;;;5120806;27;61929;-74
2022/05/18 08:57:15;;;;;;;;;1.00;1.00;;;;;;;;5120849;27;61914;-75
2022/05/18 08:59:41;;;;;;;;;1.00;0.00;;;;;;;;5117589;27;63084;-75
2022/05/18 09:02:12;;;;;;;;;0.00;0.00;;;;;;;;5122768;27;62137;-74
2022/05/18 09:04:46;;;;;;;;;0.33;0.33;;;;;;;;5119460;27;61888;-75
2022/05/18 09:07:15;;;;;;;;;1.67;0.33;;;;;;;;5120815;27;61990;-74
2022/05/18 09:10:12;;;;;;;;;1.00;1.00;;;;;;;;5121699;27;63919;-75
2022/05/18 09:12:38;;;;;;;;;0.00;0.00;;;;;;;;5121860;27;62018;-75
2022/05/18 09:15:04;;;;;;;;;0.00;0.00;;;;;;;;5122457;27;62011;-74
2022/05/18 09:17:31;;;;;;;;;2.00;0.00;;;;;;;;5122944;27;62099;-75
2022/05/18 09:20:12;;;;;;;;;0.00;0.00;;;;;;;;5121502;27;61962;-74
2022/05/18 09:22:55;;;;;;;;;1.00;0.00;;;;;;;;5119812;27;62065;-74
2022/05/18 09:25:36;;;;;;;;;1.00;0.00;;;;;;;;5122328;27;61891;-74
2022/05/18 09:28:13;;;;;;;;;0.67;0.00;;;;;;;;5121938;27;61954;-75
2022/05/18 09:30:54;;;;;;;;;0.00;0.00;;;;;;;;5120415;27;61848;-75
2022/05/18 09:33:35;;;;;;;;;1.00;0.00;;;;;;;;5120427;27;62249;-75
2022/05/18 09:36:17;;;;;;;;;1.00;0.00;;;;;;;;5120722;27;61828;-78
2022/05/18 09:38:50;;;;;;;;;0.00;0.00;;;;;;;;5122213;27;61894;-75
2022/05/18 09:41:18;;;;;;;;;1.00;1.00;;;;;;;;5121530;27;61660;-75
2022/05/18 09:43:53;;;;;;;;;0.00;0.00;;;;;;;;5119404;27;61781;-75
2022/05/18 09:46:22;;;;;;;;;0.67;0.67;;;;;;;;5121153;27;61798;-75
2022/05/18 09:48:54;;;;;;;;;1.00;0.00;;;;;;;;5122475;27;61803;-74
2022/05/18 09:51:24;;;;;;;;;0.00;0.00;;;;;;;;5121164;27;61847;-75
2022/05/18 09:53:49;;;;;;;;;0.67;0.00;;;;;;;;5118860;27;62079;-74
2022/05/18 09:56:21;;;;;;;;;0.67;0.67;;;;;;;;5122155;27;62063;-74
2022/05/18 09:58:48;;;;;;;;;1.00;1.00;;;;;;;;5118181;27;61836;-74
2022/05/18 10:09:43;;;;;;;;;1.33;1.33;;;;;;;;5102492;27;61881;-74
2022/05/18 10:12:19;;;;;;;;;5.00;1.00;;;;;;;;5101481;27;62624;-74
2022/05/18 10:14:51;;;;;;;;;0.67;0.67;;;;;;;;5102003;27;61931;-74
2022/05/18 10:17:19;;;;;;;;;1.00;1.00;;;;;;;;5116355;27;62295;-74
2022/05/18 10:19:46;;;;;;;;;1.00;1.00;;;;;;;;5123194;27;61747;-74
2022/05/18 10:22:17;;;;;;;;;0.00;0.00;;;;;;;;5121926;27;61762;-74
2022/05/18 10:24:47;;;;;;;;;1.00;1.00;;;;;;;;5122554;27;61676;-73
2022/05/18 10:27:13;;;;;;;;;0.00;0.00;;;;;;;;5122777;27;61787;-73
2022/05/18 10:29:38;;;;;;;;;1.33;1.00;;;;;;;;5122675;27;61790;-75
2022/05/18 10:32:08;;;;;;;;;1.00;1.00;;;;;;;;5121758;27;62728;-73
2022/05/18 10:34:42;;;;;;;;;1.00;1.00;;;;;;;;5122235;27;61807;-73
2022/05/18 10:37:10;;;;;;;;;3.00;1.00;;;;;;;;5121866;27;61890;-73
2022/05/18 10:39:40;;;;;;;;;1.33;0.00;;;;;;;;5120953;27;62001;-73
2022/05/18 10:42:20;;;;;;;;;1.33;0.67;;;;;;;;5122024;27;61859;-73
2022/05/18 10:44:46;;;;;;;;;1.00;1.00;;;;;;;;5121038;27;62328;-73
2022/05/18 10:47:35;;;;;;;;;1.00;1.00;;;;;;;;5121718;27;61821;-74
2022/05/18 10:50:20;;;;;;;;;1.00;1.00;;;;;;;;5122388;27;62629;-73
2022/05/18 10:52:46;;;;;;;;;0.67;0.67;;;;;;;;5121202;27;62558;-74
2022/05/18 10:55:15;;;;;;;;;1.33;1.33;;;;;;;;5119694;27;61747;-73
2022/05/18 10:57:47;;;;;;;;;1.67;1.00;;;;;;;;5116653;27;62193;-73
2022/05/18 11:00:15;;;;;;;;;1.00;1.00;;;;;;;;5101505;27;62179;-73
2022/05/18 11:02:45;;;;;;;;;0.00;0.00;;;;;;;;5101262;27;61955;-74
2022/05/18 11:05:25;;;;;;;;;0.67;0.67;;;;;;;;5110186;27;61986;-74
2022/05/18 11:07:50;;;;;;;;;0.67;0.67;;;;;;;;5122605;27;61895;-74
2022/05/18 11:10:16;;;;;;;;;1.67;1.00;;;;;;;;5125566;27;61984;-74
2022/05/18 11:12:41;;;;;;;;;1.33;1.33;;;;;;;;5125340;27;61924;-74
2022/05/18 11:15:07;;;;;;;;;0.33;0.00;;;;;;;;5125368;27;62157;-74
2022/05/18 11:17:50;;;;;;;;;1.67;0.67;;;;;;;;5125879;27;62015;-74
2022/05/18 11:20:38;;;;;;;;;0.33;0.33;;;;;;;;5125839;27;62160;-73
2022/05/18 11:23:04;;;;;;;;;2.33;1.33;;;;;;;;5110977;27;62025;-75
2022/05/18 11:25:48;;;;;;;;;0.00;0.00;;;;;;;;5123913;27;62278;-75
2022/05/18 11:28:16;;;;;;;;;1.33;0.33;;;;;;;;5123257;27;61951;-75
2022/05/18 11:30:50;;;;;;;;;0.67;0.67;;;;;;;;5124155;27;62145;-75
2022/05/18 11:33:21;;;;;;;;;0.33;0.33;;;;;;;;5122988;27;62082;-74
2022/05/18 11:35:47;;;;;;;;;0.67;0.67;;;;;;;;5121388;27;61832;-74
2022/05/18 11:38:13;;;;;;;;;1.00;0.67;;;;;;;;5121970;27;61916;-74
2022/05/18 11:40:38;;;;;;;;;0.67;0.67;;;;;;;;5123695;27;61982;-75
2022/05/18 11:43:25;;;;;;;;;5.33;0.67;;;;;;;;5122297;27;63628;-75
2022/05/18 11:46:00;;;;;;;;;1.00;0.67;;;;;;;;5122640;27;61727;-75
2022/05/18 11:48:37;;;;;;;;;0.67;0.67;;;;;;;;5123629;27;61727;-75
2022/05/18 11:51:10;;;;;;;;;2.67;1.33;;;;;;;;5122228;27;61842;-74
2022/05/18 11:53:41;;;;;;;;;0.33;0.33;;;;;;;;5122331;27;64781;-75
2022/05/18 11:56:07;;;;;;;;;2.00;1.00;;;;;;;;5121889;27;62754;-75
2022/05/18 11:59:06;;;;;;;;;1.00;1.00;;;;;;;;5111323;27;62132;-75
2022/05/18 12:01:48;;;;;;;;;1.00;0.00;;;;;;;;5104761;27;61672;-75
2022/05/18 12:04:22;;;;;;;;;2.00;1.00;;;;;;;;5102665;27;64716;-75
2022/05/18 12:06:48;;;;;;;;;0.00;0.00;;;;;;;;5124889;27;61807;-75
2022/05/18 12:09:24;;;;;;;;;0.67;0.00;;;;;;;;5123551;27;62533;-75
2022/05/18 12:12:11;;;;;;;;;0.00;0.00;;;;;;;;5125304;27;61871;-75
2022/05/18 12:15:03;;;;;;;;;0.00;0.00;;;;;;;;5122256;27;64746;-75
2022/05/18 12:17:33;;;;;;;;;0.00;0.00;;;;;;;;5040346;28;61934;-75
2022/05/18 12:20:07;;;;;;;;;0.00;0.00;;;;;;;;5040680;28;62039;-75
2022/05/18 12:22:40;;;;;;;;;0.33;0.33;;;;;;;;5040822;28;61936;-75
2022/05/18 12:25:08;;;;;;;;;0.00;0.00;;;;;;;;5039947;28;61929;-75
2022/05/18 12:27:33;;;;;;;;;0.67;0.67;;;;;;;;5023225;28;62180;-75
2022/05/18 12:30:00;;;;;;;;;0.00;0.00;;;;;;;;5040268;28;61816;-75
2022/05/18 12:32:26;;;;;;;;;0.00;0.00;;;;;;;;5040538;28;61827;-76
2022/05/18 12:35:03;;;;;;;;;1.00;1.00;;;;;;;;5039401;28;61866;-75
2022/05/18 12:37:33;;;;;;;;;0.00;0.00;;;;;;;;5040366;28;61799;-75
2022/05/18 12:40:18;;;;;;;;;0.00;0.00;;;;;;;;5039925;28;62210;-77
2022/05/18 12:42:55;;;;;;;;;0.00;0.00;;;;;;;;5038652;28;62059;-76
2022/05/18 12:45:23;;;;;;;;;0.67;0.00;;;;;;;;5037358;28;63008;-76
2022/05/18 12:47:52;;;;;;;;;0.00;0.00;;;;;;;;5021302;28;61939;-75
2022/05/18 12:50:30;;;;;;;;;1.00;0.00;;;;;;;;5038324;28;61911;-76
2022/05/18 12:52:58;;;;;;;;;0.00;0.00;;;;;;;;5039864;28;61999;-75
2022/05/18 12:55:23;;;;;;;;;0.00;0.00;;;;;;;;5104353;27;62882;-75
2022/05/18 12:57:50;;;;;;;;;1.33;0.67;;;;;;;;5124043;27;61889;-75
2022/05/18 13:00:24;;;;;;;;;0.00;0.00;;;;;;;;5101954;27;61853;-75
2022/05/18 13:03:08;;;;;;;;;0.00;0.00;;;;;;;;5102169;27;61781;-75
2022/05/18 13:05:35;;;;;;;;;0.00;0.00;;;;;;;;5112961;27;63584;-76
2022/05/18 13:08:16;;;;;;;;;0.00;0.00;;;;;;;;5124015;27;61726;-75
2022/05/18 13:11:01;;;;;;;;;0.00;0.00;;;;;;;;5116610;27;61994;-75
2022/05/18 13:13:26;;;;;;;;;0.67;0.00;;;;;;;;5101660;27;62334;-75
2022/05/18 13:15:54;;;;;;;;;0.00;0.00;;;;;;;;5102534;27;61895;-75
2022/05/18 13:18:20;;;;;;;;;1.00;0.00;;;;;;;;5103164;27;61907;-75
2022/05/18 13:20:51;;;;;;;;;0.00;0.00;;;;;;;;5101897;27;62256;-75
2022/05/18 13:23:28;;;;;;;;;0.00;0.00;;;;;;;;5103550;27;61809;-76
2022/05/18 13:26:21;;;;;;;;;1.67;1.67;;;;;;;;5102518;27;61850;-75
2022/05/18 13:28:46;;;;;;;;;0.00;0.00;;;;;;;;5078702;27;62045;-75
2022/05/18 13:31:11;;;;;;;;;0.00;0.00;;;;;;;;5102613;27;62014;-76
2022/05/18 13:33:49;;;;;;;;;1.00;1.00;;;;;;;;5103020;27;61830;-75
2022/05/18 13:36:14;;;;;;;;;0.00;0.00;;;;;;;;5102364;27;61973;-75
2022/05/18 13:38:40;;;;;;;;;0.00;0.00;;;;;;;;5102715;27;61948;-75
2022/05/18 13:41:07;;;;;;;;;0.00;0.00;;;;;;;;5102922;27;61589;-75
2022/05/18 13:43:34;;;;;;;;;0.67;0.67;;;;;;;;5101742;27;61754;-75
2022/05/18 13:46:04;;;;;;;;;0.00;0.00;;;;;;;;5101811;27;62879;-75
2022/05/18 13:48:31;;;;;;;;;0.00;0.00;;;;;;;;5102544;27;61745;-75
2022/05/18 13:51:04;;;;;;;;;0.00;0.00;;;;;;;;5101097;27;61787;-75
2022/05/18 13:53:32;;;;;;;;;0.33;0.33;;;;;;;;5101616;27;61847;-75
2022/05/18 13:56:02;;;;;;;;;0.33;0.33;;;;;;;;5109996;27;61920;-75
2022/05/18 13:58:27;;;;;;;;;0.00;0.00;;;;;;;;5122775;27;62023;-75
2022/05/18 14:00:58;;;;;;;;;0.00;0.00;;;;;;;;5123045;27;61792;-75
2022/05/18 14:03:28;;;;;;;;;0.00;0.00;;;;;;;;5123140;27;61908;-75
2022/05/18 14:05:56;;;;;;;;;0.67;0.67;;;;;;;;5121896;27;61843;-75
2022/05/18 14:08:21;;;;;;;;;0.00;0.00;;;;;;;;5120260;27;61782;-75
2022/05/18 14:10:47;;;;;;;;;2.67;1.67;;;;;;;;5122555;27;61684;-77
2022/05/18 14:13:12;;;;;;;;;0.00;0.00;;;;;;;;5121971;27;61916;-75
2022/05/18 14:15:38;;;;;;;;;0.00;0.00;;;;;;;;5121840;27;62679;-75
2022/05/18 14:18:06;;;;;;;;;0.00;0.00;;;;;;;;5121043;27;62075;-75
2022/05/18 14:20:31;;;;;;;;;0.00;0.00;;;;;;;;5122211;27;61852;-75
2022/05/18 14:22:58;;;;;;;;;0.67;0.67;;;;;;;;5122930;27;61826;-75
2022/05/18 14:25:31;;;;;;;;;0.00;0.00;;;;;;;;5122583;27;61871;-75
2022/05/18 14:27:59;;;;;;;;;0.00;0.00;;;;;;;;5122710;27;61901;-75
2022/05/18 14:30:26;;;;;;;;;0.67;0.00;;;;;;;;5122497;27;61755;-75
2022/05/18 14:32:57;;;;;;;;;0.00;0.00;;;;;;;;5122729;27;61764;-75
2022/05/18 14:35:24;;;;;;;;;0.00;0.00;;;;;;;;5120757;27;64872;-75
2022/05/18 14:37:51;;;;;;;;;0.00;0.00;;;;;;;;5122128;27;61950;-75
2022/05/18 14:40:20;;;;;;;;;0.00;0.00;;;;;;;;5121597;27;61893;-75
2022/05/18 14:42:47;;;;;;;;;0.00;0.00;;;;;;;;5122905;27;62039;-75
2022/05/18 14:45:16;;;;;;;;;0.00;0.00;;;;;;;;5124780;27;61688;-75
2022/05/18 14:47:41;;;;;;;;;0.00;0.00;;;;;;;;5126325;27;61947;-75
2022/05/18 14:50:16;;;;;;;;;0.67;0.00;;;;;;;;5126030;27;61835;-75
2022/05/18 14:52:43;;;;;;;;;0.00;0.00;;;;;;;;5124823;27;62313;-75
2022/05/18 14:55:13;;;;;;;;;0.00;0.00;;;;;;;;5125288;27;61868;-75
2022/05/18 14:57:39;;;;;;;;;0.00;0.00;;;;;;;;5125077;27;61812;-75
2022/05/18 15:00:05;;;;;;;;;0.00;0.00;;;;;;;;5125062;27;61732;-74
2022/05/18 15:02:31;;;;;;;;;0.00;0.00;;;;;;;;5124145;27;62235;-75
2022/05/18 15:05:05;;;;;;;;;0.00;0.00;;;;;;;;5124416;27;61800;-76
2022/05/18 15:07:32;;;;;;;;;0.00;0.00;;;;;;;;5124875;27;62021;-76
2022/05/18 15:10:03;;;;;;;;;0.00;0.00;;;;;;;;5123843;27;61622;-76